createdAt,value
2022-10-07T00:01:30.875Z,97498.00
2022-10-07T00:05:34.950Z,97496.00
2022-10-07T00:10:09.033Z,97493.00
2022-10-07T00:14:13.486Z,97492.00
2022-10-07T00:18:16.711Z,97494.00
2022-10-07T00:22:54.475Z,97487.00
2022-10-07T00:26:57.581Z,97481.00
2022-10-07T00:31:36.486Z,97475.00
2022-10-07T00:35:39.618Z,97469.00
2022-10-07T00:39:42.801Z,97462.00
2022-10-07T00:43:46.016Z,97461.00
2022-10-07T00:47:52.040Z,97458.00
2022-10-07T00:51:55.391Z,97439.00
2022-10-07T00:56:29.910Z,97446.00
2022-10-07T01:00:33.878Z,97444.00
2022-10-07T01:04:38.678Z,97437.00
2022-10-07T01:08:48.515Z,97437.00
2022-10-07T01:13:05.619Z,97427.00
2022-10-07T01:17:28.993Z,97420.00
2022-10-07T01:21:40.667Z,97413.00
2022-10-07T01:26:26.551Z,97407.00
2022-10-07T01:30:35.876Z,97404.00
2022-10-07T01:34:41.526Z,97402.00
2022-10-07T01:39:17.744Z,97396.00
2022-10-07T01:43:23.277Z,97394.00
2022-10-07T01:48:00.250Z,97386.00
2022-10-07T01:52:24.777Z,97378.00
2022-10-07T01:56:43.826Z,97375.00
2022-10-07T02:01:09.517Z,97371.00
2022-10-07T02:05:21.611Z,97364.00
2022-10-07T02:09:52.700Z,97363.00
2022-10-07T02:14:01.469Z,97353.00
2022-10-07T02:18:34.335Z,97346.00
2022-10-07T02:22:41.192Z,97349.00
2022-10-07T02:27:13.908Z,97347.00
2022-10-07T02:31:19.383Z,97349.00
2022-10-07T02:35:54.911Z,97337.00
2022-10-07T02:40:01.094Z,97349.00
2022-10-07T02:44:38.858Z,97338.00
2022-10-07T02:48:47.484Z,97334.00
2022-10-07T02:52:52.542Z,97332.00
2022-10-07T02:57:26.561Z,97323.00
2022-10-07T03:01:45.458Z,97328.00
2022-10-07T03:06:07.242Z,97328.00
2022-10-07T03:10:10.829Z,97334.00
2022-10-07T03:14:50.061Z,97326.00
2022-10-07T03:19:01.930Z,97328.00
2022-10-07T03:23:33.290Z,97312.00
2022-10-07T03:27:36.536Z,97311.00
2022-10-07T03:32:14.883Z,97308.00
2022-10-07T03:36:19.393Z,97307.00
2022-10-07T03:40:52.926Z,97310.00
2022-10-07T03:44:56.017Z,97319.00
2022-10-07T03:49:02.453Z,97315.00
2022-10-07T03:53:38.690Z,97312.00
2022-10-07T03:58:13.348Z,97308.00
2022-10-07T04:02:47.611Z,97307.00
2022-10-07T04:07:24.717Z,97310.00
2022-10-07T04:12:03.821Z,97296.00
2022-10-07T04:16:39.735Z,97286.00
2022-10-07T04:21:13.498Z,97286.00
2022-10-07T04:25:50.576Z,97277.00
2022-10-07T04:30:29.660Z,97274.00
2022-10-07T04:35:05.329Z,97270.00
2022-10-07T04:39:59.725Z,97270.00
2022-10-07T04:44:15.138Z,97268.00
2022-10-07T04:48:51.182Z,97257.00
2022-10-07T04:53:24.950Z,97254.00
2022-10-07T04:58:01.511Z,97245.00
2022-10-07T05:02:38.443Z,97243.00
2022-10-07T05:07:18.460Z,97252.00
2022-10-07T05:11:55.699Z,97244.00
2022-10-07T05:16:00.294Z,97253.00
2022-10-07T05:20:04.831Z,97241.00
2022-10-07T05:29:25.221Z,97234.00
2022-10-07T05:33:59.241Z,97239.00
2022-10-07T05:38:36.930Z,97233.00
2022-10-07T05:43:14.006Z,97228.00
2022-10-07T05:48:00.713Z,97227.00
2022-10-07T05:52:40.044Z,97228.00
2022-10-07T05:57:13.768Z,97227.00
2022-10-07T06:01:50.758Z,97214.00
2022-10-07T06:06:27.435Z,97211.00
2022-10-07T06:11:23.479Z,97220.00
2022-10-07T06:15:41.911Z,97226.00
2022-10-07T06:20:19.064Z,97234.00
2022-10-07T06:29:39.289Z,97228.00
2022-10-07T06:34:13.117Z,97229.00
2022-10-07T06:38:50.597Z,97238.00
2022-10-07T06:43:24.953Z,97240.00
2022-10-07T06:47:40.763Z,97247.00
2022-10-07T06:52:14.861Z,97242.00
2022-10-07T06:56:51.849Z,97259.00
2022-10-07T07:01:28.987Z,97248.00
2022-10-07T07:06:07.930Z,97252.00
2022-10-07T07:10:42.981Z,97247.00
2022-10-07T07:14:46.144Z,97252.00
2022-10-07T07:19:22.898Z,97247.00
2022-10-07T07:28:43.039Z,97244.00
2022-10-07T07:33:17.148Z,97242.00
2022-10-07T07:37:54.551Z,97253.00
2022-10-07T07:42:31.608Z,97254.00
2022-10-07T07:47:10.353Z,97237.00
2022-10-07T07:51:44.333Z,97238.00
2022-10-07T07:56:21.438Z,97235.00
2022-10-07T08:00:28.377Z,97234.00
2022-10-07T08:05:04.449Z,97224.00
2022-10-07T08:09:38.336Z,97227.00
2022-10-07T08:14:16.188Z,97226.00
2022-10-07T08:18:54.383Z,97231.00
2022-10-07T08:22:59.885Z,97230.00
2022-10-07T08:27:33.729Z,97222.00
2022-10-07T08:32:10.860Z,97217.00
2022-10-07T08:36:49.278Z,97217.00
2022-10-07T08:41:33.034Z,97205.00
2022-10-07T08:46:06.041Z,97203.00
2022-10-07T08:50:43.770Z,97195.00
2022-10-07T08:55:15.034Z,97195.00
2022-10-07T08:59:56.160Z,97189.00
2022-10-07T09:04:33.160Z,97187.00
2022-10-07T09:09:06.100Z,97183.00
2022-10-07T09:13:42.966Z,97183.00
2022-10-07T09:18:21.503Z,97172.00
2022-10-07T09:22:59.004Z,97172.00
2022-10-07T09:32:19.943Z,97160.00
2022-10-07T09:36:54.005Z,97163.00
2022-10-07T09:41:35.482Z,97156.00
2022-10-07T09:46:07.498Z,97153.00
2022-10-07T09:50:41.248Z,97155.00
2022-10-07T09:55:21.677Z,97156.00
2022-10-07T09:59:27.774Z,97162.00
2022-10-07T10:04:01.979Z,97154.00
2022-10-07T10:08:38.462Z,97152.00
2022-10-07T10:13:24.688Z,97143.00
2022-10-07T10:17:54.874Z,97147.00
2022-10-07T10:22:28.497Z,97142.00
2022-10-07T10:27:07.820Z,97135.00
2022-10-07T10:31:22.433Z,97135.00
2022-10-07T10:35:55.408Z,97136.00
2022-10-07T10:40:27.491Z,97116.00
2022-10-07T10:45:08.223Z,97113.00
2022-10-07T10:49:38.772Z,97115.00
2022-10-07T10:54:11.963Z,97106.00
2022-10-07T10:58:28.003Z,97101.00
2022-10-07T11:02:59.392Z,97103.00
2022-10-07T11:07:38.893Z,97096.00
2022-10-07T11:11:44.863Z,97093.00
2022-10-07T11:15:51.698Z,97086.00
2022-10-07T11:19:59.084Z,97085.00
2022-10-07T11:24:10.327Z,97081.00
2022-10-07T11:28:20.475Z,97074.00
2022-10-07T11:32:50.958Z,97066.00
2022-10-07T11:37:03.052Z,97070.00
2022-10-07T11:41:33.362Z,97068.00
2022-10-07T11:46:11.886Z,97064.00
2022-10-07T11:50:20.426Z,97049.00
2022-10-07T11:54:59.556Z,97053.00
2022-10-07T11:59:40.100Z,97031.00
2022-10-07T12:04:24.820Z,97032.00
2022-10-07T12:08:53.214Z,97024.00
2022-10-07T12:13:37.171Z,97015.00
2022-10-07T12:18:10.638Z,97013.00
2022-10-07T12:22:44.771Z,97008.00
2022-10-07T12:27:25.090Z,97001.00
2022-10-07T12:36:44.242Z,96993.00
2022-10-07T12:41:26.941Z,96982.00
2022-10-07T12:46:03.156Z,96975.00
2022-10-07T12:50:38.657Z,96967.00
2022-10-07T12:55:16.162Z,96962.00
2022-10-07T12:59:58.298Z,96963.00
2022-10-07T13:04:37.586Z,96961.00
2022-10-07T13:09:20.362Z,96955.00
2022-10-07T13:13:48.457Z,96955.00
2022-10-07T13:18:18.602Z,96958.00
2022-10-07T13:22:55.251Z,96951.00
2022-10-07T13:27:30.381Z,96942.00
2022-10-07T13:31:34.763Z,96938.00
2022-10-07T13:35:39.856Z,96928.00
2022-10-07T13:40:23.109Z,96916.00
2022-10-07T13:45:01.326Z,96923.00
2022-10-07T13:49:36.308Z,96915.00
2022-10-07T13:54:08.686Z,96907.00
2022-10-07T13:58:45.031Z,96908.00
2022-10-07T14:02:50.842Z,96898.00
2022-10-07T14:07:22.963Z,96893.00
2022-10-07T14:11:26.012Z,96890.00
2022-10-07T14:16:02.784Z,96885.00
2022-10-07T14:20:19.116Z,96884.00
2022-10-07T14:24:22.443Z,96875.00
2022-10-07T14:28:30.750Z,96867.00
2022-10-07T14:32:51.283Z,96868.00
2022-10-07T14:37:08.298Z,96867.00
2022-10-07T14:41:12.377Z,96860.00
2022-10-07T14:45:20.594Z,96859.00
2022-10-07T14:49:54.194Z,96850.00
2022-10-07T14:54:06.133Z,96839.00
2022-10-07T14:58:10.263Z,96838.00
2022-10-07T15:02:14.511Z,96840.00
2022-10-07T15:06:51.406Z,96831.00
2022-10-07T15:11:30.274Z,96831.00
2022-10-07T15:16:04.334Z,96828.00
2022-10-07T15:20:41.946Z,96815.00
2022-10-07T15:25:19.433Z,96815.00
2022-10-07T15:29:55.495Z,96812.00
2022-10-07T15:34:29.281Z,96815.00
2022-10-07T15:39:06.440Z,96822.00
2022-10-07T15:43:43.574Z,96812.00
2022-10-07T15:48:23.194Z,96813.00
2022-10-07T15:52:57.361Z,96809.00
2022-10-07T15:57:00.442Z,96799.00
2022-10-07T16:01:37.604Z,96808.00
2022-10-07T16:05:42.212Z,96806.00
2022-10-07T16:10:02.105Z,96807.00
2022-10-07T16:14:05.320Z,96798.00
2022-10-07T16:18:08.529Z,96795.00
2022-10-07T16:22:47.179Z,96789.00
2022-10-07T16:26:51.580Z,96781.00
2022-10-07T16:31:25.807Z,96787.00
2022-10-07T16:35:31.458Z,96779.00
2022-10-07T16:39:36.291Z,96785.00
2022-10-07T16:43:39.747Z,96781.00
2022-10-07T16:47:43.204Z,96784.00
2022-10-07T16:51:47.144Z,96779.00
2022-10-07T16:56:23.427Z,96775.00
2022-10-07T17:00:26.427Z,96777.00
2022-10-07T17:05:03.241Z,96776.00
2022-10-07T17:09:06.399Z,96788.00
2022-10-07T17:13:10.878Z,96773.00
2022-10-07T17:17:44.884Z,96782.00
2022-10-07T17:21:49.042Z,96784.00
2022-10-07T17:25:52.012Z,96782.00
2022-10-07T17:30:31.552Z,96782.00
2022-10-07T17:34:34.707Z,96777.00
2022-10-07T17:38:39.314Z,96770.00
2022-10-07T17:43:13.306Z,96783.00
2022-10-07T17:47:17.798Z,96772.00
2022-10-07T17:51:22.109Z,96771.00
2022-10-07T17:55:25.286Z,96776.00
2022-10-07T18:00:05.247Z,96766.00
2022-10-07T18:04:38.977Z,96765.00
2022-10-07T18:09:19.351Z,96768.00
2022-10-07T18:14:10.321Z,96758.00
2022-10-07T18:18:30.081Z,96751.00
2022-10-07T18:23:04.075Z,96750.00
2022-10-07T18:27:45.591Z,96755.00
2022-10-07T18:32:23.321Z,96753.00
2022-10-07T18:36:57.482Z,96743.00
2022-10-07T18:41:34.524Z,96745.00
2022-10-07T18:46:14.258Z,96731.00
2022-10-07T18:50:51.735Z,96739.00
2022-10-07T18:55:28.553Z,96747.00
2022-10-07T19:00:05.908Z,96748.00
2022-10-07T19:04:44.375Z,96744.00
2022-10-07T19:09:19.114Z,96739.00
2022-10-07T19:13:56.251Z,96739.00
2022-10-07T19:18:29.986Z,96734.00
2022-10-07T19:23:10.325Z,96741.00
2022-10-07T19:27:44.442Z,96742.00
2022-10-07T19:32:21.577Z,96731.00
2022-10-07T19:36:59.428Z,96731.00
2022-10-07T19:41:07.567Z,96740.00
2022-10-07T19:45:11.574Z,96734.00
2022-10-07T19:49:14.766Z,96735.00
2022-10-07T19:53:51.745Z,96746.00
2022-10-07T19:58:28.695Z,96749.00
2022-10-07T20:03:05.285Z,96750.00
2022-10-07T20:07:09.954Z,96753.00
2022-10-07T20:11:44.306Z,96749.00
2022-10-07T20:15:47.432Z,96750.00
2022-10-07T20:20:24.527Z,96746.00
2022-10-07T20:25:01.393Z,96745.00
2022-10-07T20:29:57.191Z,96751.00
2022-10-07T20:34:01.725Z,96747.00
2022-10-07T20:38:04.919Z,96749.00
2022-10-07T20:42:44.640Z,96746.00
2022-10-07T20:47:19.535Z,96733.00
2022-10-07T20:51:57.652Z,96735.00
2022-10-07T20:56:32.452Z,96722.00
2022-10-07T21:01:07.226Z,96721.00
2022-10-07T21:05:45.606Z,96716.00
2022-10-07T21:10:19.194Z,96711.00
2022-10-07T21:14:22.721Z,96716.00
2022-10-07T21:18:26.730Z,96712.00
2022-10-07T21:23:02.658Z,96711.00
2022-10-07T21:27:07.742Z,96706.00
2022-10-07T21:31:17.681Z,96710.00
2022-10-07T21:35:20.893Z,96701.00
2022-10-07T21:39:26.513Z,96699.00
2022-10-07T21:43:29.532Z,96698.00
2022-10-07T21:47:32.742Z,96688.00
2022-10-07T21:52:09.502Z,96693.00
2022-10-07T21:56:14.363Z,96689.00
2022-10-07T22:00:48.760Z,96698.00
2022-10-07T22:04:51.913Z,96687.00
2022-10-07T22:08:56.389Z,96692.00
2022-10-07T22:13:33.246Z,96687.00
2022-10-07T22:17:36.497Z,96685.00
2022-10-07T22:22:13.718Z,96672.00
2022-10-07T22:26:16.744Z,96663.00
2022-10-07T22:30:55.070Z,96658.00
2022-10-07T22:35:21.137Z,96655.00
2022-10-07T22:39:24.279Z,96662.00
2022-10-07T22:43:27.296Z,96650.00
2022-10-07T22:47:31.819Z,96646.00
2022-10-07T22:51:34.945Z,96656.00
2022-10-07T22:56:12.564Z,96654.00
2022-10-07T23:00:16.608Z,96650.00
2022-10-07T23:04:51.895Z,96642.00
2022-10-07T23:08:55.144Z,96639.00
2022-10-07T23:13:31.807Z,96639.00
2022-10-07T23:17:34.992Z,96635.00
2022-10-07T23:21:39.688Z,96641.00
2022-10-07T23:25:43.358Z,96644.00
2022-10-07T23:29:46.503Z,96646.00
2022-10-07T23:34:23.342Z,96638.00
2022-10-07T23:38:28.679Z,96634.00
2022-10-07T23:42:31.698Z,96638.00
2022-10-07T23:46:36.574Z,96636.00
2022-10-07T23:51:12.168Z,96637.00
2022-10-07T23:55:16.785Z,96636.00
2022-10-07T23:59:50.407Z,96620.00
